sensor_id;sensor_type;location;lat;lon;timestamp;pressure;altitude;pressure_sealevel;temperature;humidity
63946;BME280;50122;56.330;43.838;2023-04-25T00:00:55;100936.75;;;10.04;54.01
63946;BME280;50122;56.330;43.838;2023-04-25T00:03:22;100938.56;;;10.02;53.88
63946;BME280;50122;56.330;43.838;2023-04-25T00:05:51;100936.81;;;10.01;54.09
63946;BME280;50122;56.330;43.838;2023-04-25T00:08:18;100935.13;;;10.00;54.07
63946;BME280;50122;56.330;43.838;2023-04-25T00:10:45;100937.84;;;9.97;54.27
63946;BME280;50122;56.330;43.838;2023-04-25T00:13:11;100936.13;;;9.96;54.32
63946;BME280;50122;56.330;43.838;2023-04-25T00:15:38;100936.31;;;9.89;54.16
63946;BME280;50122;56.330;43.838;2023-04-25T00:18:05;100932.78;;;9.89;54.85
63946;BME280;50122;56.330;43.838;2023-04-25T00:20:32;100936.38;;;9.86;54.90
63946;BME280;50122;56.330;43.838;2023-04-25T00:22:59;100944.41;;;9.83;55.17
63946;BME280;50122;56.330;43.838;2023-04-25T00:25:26;100942.75;;;9.81;55.27
63946;BME280;50122;56.330;43.838;2023-04-25T00:27:52;100947.34;;;9.74;55.63
63946;BME280;50122;56.330;43.838;2023-04-25T00:30:19;100941.25;;;9.70;55.63
63946;BME280;50122;56.330;43.838;2023-04-25T00:32:47;100943.19;;;9.65;55.81
63946;BME280;50122;56.330;43.838;2023-04-25T00:35:13;100944.22;;;9.60;56.23
63946;BME280;50122;56.330;43.838;2023-04-25T00:37:40;100945.31;;;9.52;55.96
63946;BME280;50122;56.330;43.838;2023-04-25T00:40:07;100945.47;;;9.48;56.66
63946;BME280;50122;56.330;43.838;2023-04-25T00:42:35;100940.34;;;9.42;56.66
63946;BME280;50122;56.330;43.838;2023-04-25T00:45:04;100944.94;;;9.35;57.46
63946;BME280;50122;56.330;43.838;2023-04-25T00:47:32;100944.19;;;9.30;57.46
63946;BME280;50122;56.330;43.838;2023-04-25T00:49:59;100947.00;;;9.24;57.87
63946;BME280;50122;56.330;43.838;2023-04-25T00:52:26;100948.84;;;9.20;57.54
63946;BME280;50122;56.330;43.838;2023-04-25T00:54:54;100956.00;;;9.16;57.46
63946;BME280;50122;56.330;43.838;2023-04-25T00:57:21;100942.91;;;9.13;57.86
63946;BME280;50122;56.330;43.838;2023-04-25T00:59:47;100935.88;;;9.12;57.52
63946;BME280;50122;56.330;43.838;2023-04-25T01:02:15;100948.13;;;9.15;58.05
63946;BME280;50122;56.330;43.838;2023-04-25T01:04:41;100943.75;;;9.14;58.15
63946;BME280;50122;56.330;43.838;2023-04-25T01:07:09;100943.78;;;9.12;58.29
63946;BME280;50122;56.330;43.838;2023-04-25T01:09:36;100942.00;;;9.13;58.50
63946;BME280;50122;56.330;43.838;2023-04-25T01:12:03;100932.41;;;9.12;58.70
63946;BME280;50122;56.330;43.838;2023-04-25T01:14:30;100941.19;;;9.11;58.65
63946;BME280;50122;56.330;43.838;2023-04-25T01:16:57;100932.47;;;9.09;59.11
63946;BME280;50122;56.330;43.838;2023-04-25T01:19:24;100927.25;;;9.07;58.93
63946;BME280;50122;56.330;43.838;2023-04-25T01:21:51;100926.41;;;9.05;59.04
63946;BME280;50122;56.330;43.838;2023-04-25T01:24:20;100933.56;;;9.01;59.13
63946;BME280;50122;56.330;43.838;2023-04-25T01:26:47;100932.66;;;9.01;59.15
63946;BME280;50122;56.330;43.838;2023-04-25T01:29:20;100921.34;;;8.97;59.96
63946;BME280;50122;56.330;43.838;2023-04-25T01:31:48;100930.22;;;8.95;59.63
63946;BME280;50122;56.330;43.838;2023-04-25T01:34:15;100929.44;;;8.91;60.20
63946;BME280;50122;56.330;43.838;2023-04-25T01:36:41;100930.50;;;8.84;59.71
63946;BME280;50122;56.330;43.838;2023-04-25T01:39:10;100938.44;;;8.82;60.01
63946;BME280;50122;56.330;43.838;2023-04-25T01:41:36;100950.03;;;8.75;60.48
63946;BME280;50122;56.330;43.838;2023-04-25T01:44:03;100949.25;;;8.72;60.76
63946;BME280;50122;56.330;43.838;2023-04-25T01:46:30;100928.44;;;8.61;60.57
63946;BME280;50122;56.330;43.838;2023-04-25T01:48:57;100943.19;;;8.69;60.91
63946;BME280;50122;56.330;43.838;2023-04-25T01:51:24;100945.78;;;8.71;61.16
63946;BME280;50122;56.330;43.838;2023-04-25T01:53:51;100944.03;;;8.70;60.90
63946;BME280;50122;56.330;43.838;2023-04-25T01:56:21;100943.22;;;8.66;61.19
63946;BME280;50122;56.330;43.838;2023-04-25T01:58:48;100942.34;;;8.67;61.46
63946;BME280;50122;56.330;43.838;2023-04-25T02:01:15;100946.66;;;8.70;60.92
63946;BME280;50122;56.330;43.838;2023-04-25T02:03:43;100943.13;;;8.71;60.91
63946;BME280;50122;56.330;43.838;2023-04-25T02:06:09;100949.19;;;8.75;61.63
63946;BME280;50122;56.330;43.838;2023-04-25T02:08:37;100952.72;;;8.74;62.15
63946;BME280;50122;56.330;43.838;2023-04-25T02:11:03;100955.31;;;8.75;62.21
63946;BME280;50122;56.330;43.838;2023-04-25T02:13:30;100954.44;;;8.75;62.12
63946;BME280;50122;56.330;43.838;2023-04-25T02:15:57;100956.09;;;8.79;61.72
63946;BME280;50122;56.330;43.838;2023-04-25T02:18:24;100953.34;;;8.83;62.04
63946;BME280;50122;56.330;43.838;2023-04-25T02:20:52;100949.72;;;8.88;61.93
63946;BME280;50122;56.330;43.838;2023-04-25T02:23:20;100947.84;;;8.93;61.73
63946;BME280;50122;56.330;43.838;2023-04-25T02:25:46;100955.53;;;9.00;61.91
63946;BME280;50122;56.330;43.838;2023-04-25T02:28:13;100964.16;;;9.07;61.78
63946;BME280;50122;56.330;43.838;2023-04-25T02:30:40;100956.97;;;9.12;61.49
63946;BME280;50122;56.330;43.838;2023-04-25T02:33:06;100957.72;;;9.17;61.74
63946;BME280;50122;56.330;43.838;2023-04-25T02:35:33;100960.19;;;9.24;61.79
63946;BME280;50122;56.330;43.838;2023-04-25T02:38:00;100966.19;;;9.30;61.60
63946;BME280;50122;56.330;43.838;2023-04-25T02:40:26;100963.44;;;9.33;61.38
63946;BME280;50122;56.330;43.838;2023-04-25T02:42:53;100964.06;;;9.42;61.65
63946;BME280;50122;56.330;43.838;2023-04-25T02:45:21;100965.69;;;9.47;61.13
63946;BME280;50122;56.330;43.838;2023-04-25T02:47:47;100962.88;;;9.53;60.93
63946;BME280;50122;56.330;43.838;2023-04-25T02:50:14;100964.44;;;9.61;61.13
63946;BME280;50122;56.330;43.838;2023-04-25T02:52:42;100960.75;;;9.66;60.98
63946;BME280;50122;56.330;43.838;2023-04-25T02:55:09;100967.59;;;9.72;60.77
63946;BME280;50122;56.330;43.838;2023-04-25T02:57:37;100967.50;;;9.77;60.80
63946;BME280;50122;56.330;43.838;2023-04-25T03:00:04;100966.34;;;9.85;60.79
63946;BME280;50122;56.330;43.838;2023-04-25T03:02:31;100957.47;;;9.88;60.75
63946;BME280;50122;56.330;43.838;2023-04-25T03:04:58;100963.44;;;9.95;60.47
63946;BME280;50122;56.330;43.838;2023-04-25T03:07:25;100961.53;;;10.00;60.48
63946;BME280;50122;56.330;43.838;2023-04-25T03:09:51;100971.00;;;10.07;60.48
63946;BME280;50122;56.330;43.838;2023-04-25T03:12:18;100969.00;;;10.14;60.34
63946;BME280;50122;56.330;43.838;2023-04-25T03:14:45;100962.72;;;10.18;60.23
63946;BME280;50122;56.330;43.838;2023-04-25T03:17:12;100961.66;;;10.23;60.53
63946;BME280;50122;56.330;43.838;2023-04-25T03:19:38;100964.09;;;10.30;59.78
63946;BME280;50122;56.330;43.838;2023-04-25T03:22:06;100963.97;;;10.36;59.65
63946;BME280;50122;56.330;43.838;2023-04-25T03:24:32;100969.88;;;10.42;59.70
63946;BME280;50122;56.330;43.838;2023-04-25T03:26:59;100971.47;;;10.48;59.55
63946;BME280;50122;56.330;43.838;2023-04-25T03:29:26;100968.59;;;10.56;59.65
63946;BME280;50122;56.330;43.838;2023-04-25T03:31:54;100961.41;;;10.59;59.80
63946;BME280;50122;56.330;43.838;2023-04-25T03:34:21;100963.75;;;10.69;59.55
63946;BME280;50122;56.330;43.838;2023-04-25T03:36:49;100961.81;;;10.74;59.51
63946;BME280;50122;56.330;43.838;2023-04-25T03:39:16;100963.41;;;10.80;59.22
63946;BME280;50122;56.330;43.838;2023-04-25T03:41:42;100955.25;;;10.86;59.28
63946;BME280;50122;56.330;43.838;2023-04-25T03:44:09;100942.69;;;10.92;59.24
63946;BME280;50122;56.330;43.838;2023-04-25T03:46:36;100939.88;;;10.97;59.24
63946;BME280;50122;56.330;43.838;2023-04-25T03:49:02;100939.59;;;11.05;58.87
63946;BME280;50122;56.330;43.838;2023-04-25T03:51:30;100941.09;;;11.12;58.52
63946;BME280;50122;56.330;43.838;2023-04-25T03:53:57;100940.91;;;11.18;58.52
63946;BME280;50122;56.330;43.838;2023-04-25T03:56:24;100941.63;;;11.22;58.34
63946;BME280;50122;56.330;43.838;2023-04-25T03:58:50;100943.16;;;11.29;58.20
63946;BME280;50122;56.330;43.838;2023-04-25T04:01:17;100942.91;;;11.35;58.24
63946;BME280;50122;56.330;43.838;2023-04-25T04:03:44;100941.94;;;11.38;58.00
63946;BME280;50122;56.330;43.838;2023-04-25T04:06:11;100944.16;;;11.50;58.00
63946;BME280;50122;56.330;43.838;2023-04-25T04:08:39;100943.84;;;11.58;57.57
63946;BME280;50122;56.330;43.838;2023-04-25T04:11:06;100948.91;;;11.64;57.50
63946;BME280;50122;56.330;43.838;2023-04-25T04:13:32;100945.75;;;11.78;57.33
63946;BME280;50122;56.330;43.838;2023-04-25T04:15:59;100945.50;;;11.84;57.20
63946;BME280;50122;56.330;43.838;2023-04-25T04:18:26;100946.91;;;11.94;56.92
63946;BME280;50122;56.330;43.838;2023-04-25T04:20:52;100939.72;;;11.98;56.89
63946;BME280;50122;56.330;43.838;2023-04-25T04:23:19;100943.00;;;12.05;56.72
63946;BME280;50122;56.330;43.838;2023-04-25T04:25:47;100942.81;;;12.09;56.41
63946;BME280;50122;56.330;43.838;2023-04-25T04:28:14;100944.34;;;12.15;56.53
63946;BME280;50122;56.330;43.838;2023-04-25T04:30:42;100942.38;;;12.20;56.24
63946;BME280;50122;56.330;43.838;2023-04-25T04:33:12;100938.69;;;12.24;55.84
63946;BME280;50122;56.330;43.838;2023-04-25T04:35:40;100943.78;;;12.29;55.99
63946;BME280;50122;56.330;43.838;2023-04-25T04:38:07;100948.59;;;12.41;55.69
63946;BME280;50122;56.330;43.838;2023-04-25T04:40:37;100942.13;;;12.48;55.28
63946;BME280;50122;56.330;43.838;2023-04-25T04:43:04;100943.38;;;12.60;55.02
63946;BME280;50122;56.330;43.838;2023-04-25T04:45:30;100949.38;;;12.65;54.66
63946;BME280;50122;56.330;43.838;2023-04-25T04:47:57;100938.38;;;12.75;54.59
63946;BME280;50122;56.330;43.838;2023-04-25T04:50:24;100944.22;;;12.83;54.33
63946;BME280;50122;56.330;43.838;2023-04-25T04:52:51;100942.22;;;12.88;54.33
63946;BME280;50122;56.330;43.838;2023-04-25T04:55:17;100943.75;;;12.94;53.80
63946;BME280;50122;56.330;43.838;2023-04-25T04:57:48;100939.75;;;13.04;53.40
63946;BME280;50122;56.330;43.838;2023-04-25T05:00:15;100944.97;;;13.07;53.40
63946;BME280;50122;56.330;43.838;2023-04-25T05:02:42;100938.44;;;13.14;53.14
63946;BME280;50122;56.330;43.838;2023-04-25T05:05:09;100944.03;;;13.27;52.81
63946;BME280;50122;56.330;43.838;2023-04-25T05:07:36;100945.56;;;13.33;52.47
63946;BME280;50122;56.330;43.838;2023-04-25T05:10:03;100943.41;;;13.43;52.41
63946;BME280;50122;56.330;43.838;2023-04-25T05:12:30;100938.81;;;13.46;52.08
63946;BME280;50122;56.330;43.838;2023-04-25T05:14:57;100938.47;;;13.54;51.82
63946;BME280;50122;56.330;43.838;2023-04-25T05:17:23;100939.75;;;13.64;51.72
63946;BME280;50122;56.330;43.838;2023-04-25T05:19:50;100936.47;;;13.78;51.17
63946;BME280;50122;56.330;43.838;2023-04-25T05:22:17;100933.94;;;13.94;50.69
63946;BME280;50122;56.330;43.838;2023-04-25T05:24:43;100923.88;;;14.01;50.27
63946;BME280;50122;56.330;43.838;2023-04-25T05:27:10;100934.31;;;14.05;50.25
63946;BME280;50122;56.330;43.838;2023-04-25T05:29:37;100932.34;;;14.09;50.30
63946;BME280;50122;56.330;43.838;2023-04-25T05:32:05;100935.00;;;14.09;50.32
63946;BME280;50122;56.330;43.838;2023-04-25T05:34:31;100928.91;;;14.07;49.82
63946;BME280;50122;56.330;43.838;2023-04-25T05:36:58;100940.41;;;14.07;50.25
63946;BME280;50122;56.330;43.838;2023-04-25T05:39:25;100937.44;;;14.14;49.99
63946;BME280;50122;56.330;43.838;2023-04-25T05:41:52;100937.94;;;14.22;49.34
63946;BME280;50122;56.330;43.838;2023-04-25T05:44:19;100943.91;;;14.27;49.04
63946;BME280;50122;56.330;43.838;2023-04-25T05:46:46;100942.78;;;14.31;49.07
63946;BME280;50122;56.330;43.838;2023-04-25T05:49:23;100933.56;;;14.38;48.83
63946;BME280;50122;56.330;43.838;2023-04-25T05:51:50;100945.63;;;14.46;48.93
63946;BME280;50122;56.330;43.838;2023-04-25T05:54:17;100939.72;;;14.58;47.97
63946;BME280;50122;56.330;43.838;2023-04-25T05:56:48;100940.16;;;14.68;48.02
63946;BME280;50122;56.330;43.838;2023-04-25T05:59:14;100938.00;;;14.74;47.65
63946;BME280;50122;56.330;43.838;2023-04-25T06:01:42;100926.28;;;14.79;47.20
63946;BME280;50122;56.330;43.838;2023-04-25T06:04:09;100929.59;;;14.84;47.25
63946;BME280;50122;56.330;43.838;2023-04-25T06:06:36;100926.50;;;14.91;46.94
63946;BME280;50122;56.330;43.838;2023-04-25T06:09:02;100922.13;;;15.08;46.42
63946;BME280;50122;56.330;43.838;2023-04-25T06:11:29;100911.81;;;15.18;46.28
63946;BME280;50122;56.330;43.838;2023-04-25T06:13:56;100911.66;;;15.21;46.02
63946;BME280;50122;56.330;43.838;2023-04-25T06:16:23;100909.00;;;15.21;45.92
63946;BME280;50122;56.330;43.838;2023-04-25T06:18:52;100917.53;;;15.27;45.82
63946;BME280;50122;56.330;43.838;2023-04-25T06:21:19;100915.63;;;15.29;45.94
63946;BME280;50122;56.330;43.838;2023-04-25T06:23:45;100912.75;;;15.34;45.87
63946;BME280;50122;56.330;43.838;2023-04-25T06:26:12;100917.91;;;15.37;45.69
63946;BME280;50122;56.330;43.838;2023-04-25T06:28:39;100914.22;;;15.40;45.54
63946;BME280;50122;56.330;43.838;2023-04-25T06:31:07;100903.91;;;15.50;45.22
63946;BME280;50122;56.330;43.838;2023-04-25T06:33:34;100906.25;;;15.56;45.10
63946;BME280;50122;56.330;43.838;2023-04-25T06:36:00;100912.19;;;15.61;44.64
63946;BME280;50122;56.330;43.838;2023-04-25T06:38:27;100897.47;;;15.70;44.57
63946;BME280;50122;56.330;43.838;2023-04-25T06:40:53;100899.69;;;15.79;44.48
63946;BME280;50122;56.330;43.838;2023-04-25T06:43:20;100895.72;;;15.86;43.73
63946;BME280;50122;56.330;43.838;2023-04-25T06:45:48;100898.66;;;15.97;43.71
63946;BME280;50122;56.330;43.838;2023-04-25T06:48:14;100898.97;;;16.07;43.67
63946;BME280;50122;56.330;43.838;2023-04-25T06:50:42;100891.13;;;16.20;42.79
63946;BME280;50122;56.330;43.838;2023-04-25T06:53:08;100898.75;;;16.42;42.10
63946;BME280;50122;56.330;43.838;2023-04-25T06:55:35;100893.19;;;16.61;41.59
63946;BME280;50122;56.330;43.838;2023-04-25T06:58:02;100892.75;;;16.83;40.76
63946;BME280;50122;56.330;43.838;2023-04-25T07:00:29;100897.41;;;17.10;40.72
63946;BME280;50122;56.330;43.838;2023-04-25T07:02:57;100888.06;;;17.32;39.98
63946;BME280;50122;56.330;43.838;2023-04-25T07:05:24;100882.75;;;17.45;39.69
63946;BME280;50122;56.330;43.838;2023-04-25T07:07:51;100877.81;;;17.53;39.48
63946;BME280;50122;56.330;43.838;2023-04-25T07:10:18;100889.16;;;17.71;39.10
63946;BME280;50122;56.330;43.838;2023-04-25T07:12:45;100890.06;;;17.99;38.43
63946;BME280;50122;56.330;43.838;2023-04-25T07:15:11;100886.13;;;18.32;37.78
63946;BME280;50122;56.330;43.838;2023-04-25T07:17:38;100883.28;;;18.61;37.08
63946;BME280;50122;56.330;43.838;2023-04-25T07:20:05;100889.56;;;18.87;36.39
63946;BME280;50122;56.330;43.838;2023-04-25T07:22:34;100891.06;;;19.17;36.23
